createdAt,value
2018-02-02T00:00:57.506Z,99783.29
2018-02-02T00:03:29.728Z,99786.83
2018-02-02T00:06:00.161Z,99776.39
2018-02-02T00:08:30.834Z,99779.72
2018-02-02T00:11:01.424Z,99781.97
2018-02-02T00:13:31.694Z,99778.92
2018-02-02T00:16:02.682Z,99780.34
2018-02-02T00:18:33.219Z,99779.73
2018-02-02T00:21:03.721Z,99770.55
2018-02-02T00:23:34.517Z,99768.09
2018-02-02T00:26:05.504Z,99765.00
2018-02-02T00:28:36.478Z,99769.83
2018-02-02T00:31:07.184Z,99778.09
2018-02-02T00:33:37.792Z,99771.00
2018-02-02T00:36:08.360Z,99769.97
2018-02-02T00:38:39.569Z,99759.78
2018-02-02T00:41:09.949Z,99763.08
2018-02-02T00:43:40.310Z,99759.08
2018-02-02T00:46:16.592Z,99762.42
2018-02-02T00:48:47.609Z,99753.50
2018-02-02T00:51:22.271Z,99758.66
2018-02-02T00:53:52.630Z,99761.69
2018-02-02T00:56:23.103Z,99759.16
2018-02-02T00:58:53.629Z,99759.98
2018-02-02T01:01:24.603Z,99753.75
2018-02-02T01:03:56.122Z,99751.30
2018-02-02T01:06:29.415Z,99754.25
2018-02-02T01:09:02.727Z,99749.39
2018-02-02T01:11:33.357Z,99747.28
2018-02-02T01:14:04.114Z,99740.98
2018-02-02T01:16:35.121Z,99732.28
2018-02-02T01:19:05.471Z,99736.44
2018-02-02T01:21:36.003Z,99742.11
2018-02-02T01:24:06.294Z,99740.24
2018-02-02T01:26:37.095Z,99738.12
2018-02-02T01:29:07.917Z,99733.34
2018-02-02T01:31:38.851Z,99726.01
2018-02-02T01:34:09.531Z,99735.02
2018-02-02T01:36:39.995Z,99736.74
2018-02-02T01:39:10.196Z,99733.27
2018-02-02T01:41:40.602Z,99720.49
2018-02-02T01:44:10.859Z,99726.81
2018-02-02T01:46:41.637Z,99718.20
2018-02-02T01:49:12.282Z,99736.70
2018-02-02T01:51:47.013Z,99729.14
2018-02-02T01:54:17.340Z,99723.02
2018-02-02T01:56:47.935Z,99725.19
2018-02-02T01:59:18.622Z,99722.84
2018-02-02T02:01:49.421Z,99726.15
2018-02-02T02:04:20.222Z,99725.29
2018-02-02T02:06:50.620Z,99724.75
2018-02-02T02:09:21.164Z,99727.95
2018-02-02T02:11:51.976Z,99711.91
2018-02-02T02:14:22.213Z,99715.50
2018-02-02T02:16:53.473Z,99712.52
2018-02-02T02:19:24.113Z,99706.47
2018-02-02T02:21:54.528Z,99701.14
2018-02-02T02:24:25.312Z,99697.83
2018-02-02T02:26:55.611Z,99694.16
2018-02-02T02:29:25.854Z,99693.91
2018-02-02T02:31:56.784Z,99694.27
2018-02-02T02:34:28.184Z,99697.48
2018-02-02T02:36:58.396Z,99693.52
2018-02-02T02:39:29.274Z,99694.11
2018-02-02T02:42:00.379Z,99693.89
2018-02-02T02:44:31.511Z,99692.23
2018-02-02T02:47:02.186Z,99691.89
2018-02-02T02:49:32.603Z,99689.91
2018-02-02T02:52:03.736Z,99672.34
2018-02-02T02:54:34.056Z,99681.45
2018-02-02T02:57:04.723Z,99679.77
2018-02-02T02:59:35.372Z,99675.40
2018-02-02T03:02:06.859Z,99682.12
2018-02-02T03:04:37.840Z,99681.45
2018-02-02T03:07:09.334Z,99675.84
2018-02-02T03:09:40.658Z,99679.69
2018-02-02T03:12:11.480Z,99674.81
2018-02-02T03:14:42.913Z,99675.89
2018-02-02T03:17:13.575Z,99686.55
2018-02-02T03:19:43.712Z,99679.11
2018-02-02T03:22:13.971Z,99675.39
2018-02-02T03:24:44.285Z,99678.16
2018-02-02T03:27:14.460Z,99671.50
2018-02-02T03:29:45.043Z,99674.44
2018-02-02T03:32:15.346Z,99665.03
2018-02-02T03:34:45.669Z,99680.75
2018-02-02T03:37:15.927Z,99672.94
2018-02-02T03:39:46.317Z,99675.75
2018-02-02T03:42:16.601Z,99676.59
2018-02-02T03:44:47.396Z,99680.13
2018-02-02T03:47:18.156Z,99679.53
2018-02-02T03:49:48.431Z,99674.55
2018-02-02T03:52:19.542Z,99677.75
2018-02-02T03:54:49.825Z,99680.55
2018-02-02T03:57:19.950Z,99674.62
2018-02-02T03:59:50.501Z,99669.80
2018-02-02T04:02:20.991Z,99673.41
2018-02-02T04:04:51.353Z,99683.61
2018-02-02T04:07:21.596Z,99678.22
2018-02-02T04:09:51.868Z,99675.14
2018-02-02T04:12:22.139Z,99680.25
2018-02-02T04:14:52.654Z,99676.56
2018-02-02T04:17:22.896Z,99681.78
2018-02-02T04:19:53.483Z,99679.23
2018-02-02T04:22:23.701Z,99692.48
2018-02-02T04:24:54.014Z,99691.02
2018-02-02T04:27:24.218Z,99688.68
2018-02-02T04:29:54.784Z,99684.66
2018-02-02T04:32:25.473Z,99683.91
2018-02-02T04:34:55.825Z,99694.86
2018-02-02T04:37:26.255Z,99687.21
2018-02-02T04:39:56.698Z,99686.42
2018-02-02T04:42:26.941Z,99689.63
2018-02-02T04:44:57.426Z,99693.42
2018-02-02T04:47:28.372Z,99692.00
2018-02-02T04:49:59.091Z,99689.76
2018-02-02T04:52:29.515Z,99696.11
2018-02-02T04:54:59.692Z,99699.74
2018-02-02T04:57:30.036Z,99693.91
2018-02-02T05:00:00.256Z,99691.05
2018-02-02T05:02:30.884Z,99683.06
2018-02-02T05:05:01.509Z,99687.00
2018-02-02T05:07:31.899Z,99690.41
2018-02-02T05:10:05.254Z,99686.54
2018-02-02T05:12:44.438Z,99680.81
2018-02-02T05:15:18.116Z,99639.62
2018-02-02T05:17:49.923Z,99691.42
2018-02-02T05:20:20.791Z,99686.37
2018-02-02T05:22:51.081Z,99693.83
2018-02-02T05:25:21.275Z,99681.19
2018-02-02T05:28:00.361Z,99680.19
2018-02-02T05:30:32.372Z,99681.95
2018-02-02T05:33:10.753Z,99677.34
2018-02-02T05:35:46.710Z,99685.96
2018-02-02T05:38:26.088Z,99681.19
2018-02-02T05:41:01.987Z,99681.13
2018-02-02T05:43:44.900Z,99683.09
2018-02-02T05:46:16.997Z,99679.91
2018-02-02T05:48:47.746Z,99672.61
2018-02-02T05:51:18.002Z,99679.36
2018-02-02T05:53:48.387Z,99674.88
2018-02-02T05:56:19.136Z,99670.66
2018-02-02T05:58:50.038Z,99666.55
2018-02-02T06:01:20.978Z,99669.72
2018-02-02T06:03:51.450Z,99671.38
2018-02-02T06:06:21.907Z,99674.16
2018-02-02T06:08:52.477Z,99672.53
2018-02-02T06:11:24.773Z,99674.34
2018-02-02T06:13:56.765Z,99669.55
2018-02-02T06:16:29.232Z,99683.38
2018-02-02T06:19:01.305Z,99668.31
2018-02-02T06:21:33.955Z,99677.58
2018-02-02T06:24:04.493Z,99680.59
2018-02-02T06:26:35.866Z,99679.41
2018-02-02T06:29:06.460Z,99682.80
2018-02-02T06:31:37.919Z,99680.05
2018-02-02T06:34:09.490Z,99688.36
2018-02-02T06:36:41.041Z,99688.96
2018-02-02T06:39:11.795Z,99684.88
2018-02-02T06:41:42.317Z,99686.16
2018-02-02T06:44:12.673Z,99683.59
2018-02-02T06:46:43.495Z,99676.38
2018-02-02T06:49:14.398Z,99665.99
2018-02-02T06:51:45.684Z,99677.33
2018-02-02T06:54:17.154Z,99673.70
2018-02-02T06:56:48.152Z,99678.01
2018-02-02T06:59:27.196Z,99663.23
2018-02-02T07:04:56.425Z,99673.41
2018-02-02T07:07:27.584Z,99670.14
2018-02-02T07:09:58.305Z,99674.68
2018-02-02T07:12:29.413Z,99645.55
2018-02-02T07:15:04.122Z,99657.14
2018-02-02T07:17:35.906Z,99668.27
2018-02-02T07:20:08.280Z,99676.91
2018-02-02T07:22:46.019Z,99674.58
2018-02-02T07:25:17.534Z,99685.41
2018-02-02T07:27:47.820Z,99672.23
2018-02-02T07:30:19.349Z,99678.97
2018-02-02T07:32:50.691Z,99677.64
2018-02-02T07:35:22.018Z,99688.66
2018-02-02T07:37:53.215Z,99688.78
2018-02-02T07:40:23.654Z,99687.68
2018-02-02T07:42:55.002Z,99696.28
2018-02-02T07:45:27.797Z,99691.86
2018-02-02T07:48:06.117Z,99703.16
2018-02-02T07:50:42.772Z,99696.92
2018-02-02T07:53:13.162Z,99689.37
2018-02-02T07:55:44.579Z,99707.11
2018-02-02T07:58:16.042Z,99692.01
2018-02-02T08:00:51.093Z,99695.82
2018-02-02T08:03:29.965Z,99697.97
2018-02-02T08:06:00.931Z,99697.73
2018-02-02T08:08:32.341Z,99693.47
2018-02-02T08:11:02.693Z,99689.73
2018-02-02T08:13:33.994Z,99699.50
2018-02-02T08:16:05.427Z,99700.88
2018-02-02T08:18:37.041Z,99701.17
2018-02-02T08:21:08.575Z,99697.56
2018-02-02T08:23:50.812Z,99707.73
2018-02-02T08:26:28.377Z,99702.52
2018-02-02T08:28:59.020Z,99708.55
2018-02-02T08:31:29.994Z,99667.84
2018-02-02T08:34:01.657Z,99706.97
2018-02-02T08:36:32.031Z,99696.06
2018-02-02T08:39:04.650Z,99697.12
2018-02-02T08:41:36.120Z,99694.60
2018-02-02T08:44:07.393Z,99694.12
2018-02-02T08:46:44.391Z,99703.67
2018-02-02T08:49:15.715Z,99694.39
2018-02-02T08:51:49.271Z,99702.16
2018-02-02T08:54:23.271Z,99710.49
2018-02-02T08:56:53.893Z,99703.48
2018-02-02T09:02:12.270Z,99715.99
2018-02-02T09:04:43.565Z,99697.95
2018-02-02T09:07:16.400Z,99714.91
2018-02-02T09:09:50.312Z,99716.83
2018-02-02T09:12:21.382Z,99719.42
2018-02-02T09:14:52.534Z,99718.33
2018-02-02T09:17:24.042Z,99718.39
2018-02-02T09:19:55.495Z,99723.43
2018-02-02T09:22:26.382Z,99720.99
2018-02-02T09:24:56.834Z,99724.23
2018-02-02T09:27:26.186Z,99735.42
2018-02-02T09:29:57.671Z,99727.80
2018-02-02T09:32:28.773Z,99737.38
2018-02-02T09:34:59.130Z,99736.06
2018-02-02T09:37:31.937Z,99732.74
2018-02-02T09:40:04.069Z,99737.57
2018-02-02T09:42:35.408Z,99740.84
2018-02-02T09:45:14.967Z,99736.80
2018-02-02T09:47:47.281Z,99739.17
2018-02-02T09:50:20.993Z,99738.33
2018-02-02T09:52:55.119Z,99738.11
2018-02-02T09:55:28.658Z,99730.03
2018-02-02T09:58:00.197Z,99735.44
2018-02-02T10:00:32.400Z,99733.03
2018-02-02T10:03:03.063Z,99735.84
2018-02-02T10:05:34.464Z,99745.25
2018-02-02T10:08:12.645Z,99744.31
2018-02-02T10:10:45.692Z,99739.84
2018-02-02T10:13:23.264Z,99750.17
2018-02-02T10:15:59.119Z,99750.33
2018-02-02T10:18:29.964Z,99756.03
2018-02-02T10:21:02.195Z,99761.20
2018-02-02T10:23:35.802Z,99757.20
2018-02-02T10:26:14.286Z,99765.01
2018-02-02T10:28:47.972Z,99760.52
2018-02-02T10:31:20.229Z,99770.34
2018-02-02T10:33:52.389Z,99769.31
2018-02-02T10:36:26.523Z,99769.69
2018-02-02T10:39:04.546Z,99776.41
2018-02-02T10:41:42.178Z,99767.01
2018-02-02T10:44:17.411Z,99776.32
2018-02-02T10:46:50.866Z,99784.61
2018-02-02T10:49:34.031Z,99786.33
2018-02-02T10:52:07.706Z,99784.00
2018-02-02T10:54:40.527Z,99786.06
2018-02-02T10:57:12.264Z,99789.04
2018-02-02T10:59:43.798Z,99789.45
2018-02-02T11:02:20.215Z,99790.47
2018-02-02T11:04:55.573Z,99776.30
2018-02-02T11:07:28.920Z,99787.69
2018-02-02T11:10:04.411Z,99785.24
2018-02-02T11:12:36.950Z,99801.08
2018-02-02T11:15:12.849Z,99804.11
2018-02-02T11:17:43.992Z,99805.45
2018-02-02T11:20:14.953Z,99802.69
2018-02-02T11:22:47.225Z,99790.73
2018-02-02T11:25:18.393Z,99692.11
2018-02-02T11:27:49.022Z,99799.17
2018-02-02T11:30:19.930Z,99807.39
2018-02-02T11:32:52.823Z,99817.09
2018-02-02T11:35:27.018Z,99816.06
2018-02-02T11:38:03.498Z,99808.92
2018-02-02T11:40:33.815Z,99813.31
2018-02-02T11:43:04.773Z,99813.84
2018-02-02T11:45:35.646Z,99812.95
2018-02-02T11:48:06.641Z,99814.70
2018-02-02T11:50:37.877Z,99819.73
2018-02-02T11:53:08.417Z,99827.45
2018-02-02T11:55:40.297Z,99818.77
2018-02-02T11:58:21.738Z,99822.58
2018-02-02T12:00:52.612Z,99823.29
2018-02-02T12:03:25.632Z,99825.52
2018-02-02T12:05:57.316Z,99823.59
2018-02-02T12:08:28.416Z,99833.14
2018-02-02T12:11:00.301Z,99833.65
2018-02-02T12:13:30.792Z,99843.84
2018-02-02T12:16:04.613Z,99835.41
2018-02-02T12:18:36.783Z,99822.78
2018-02-02T12:21:08.290Z,99829.22
2018-02-02T12:23:39.810Z,99826.77
2018-02-02T12:26:10.611Z,99829.97
2018-02-02T12:29:01.498Z,99823.29
2018-02-02T12:31:33.964Z,99826.71
2018-02-02T12:34:05.214Z,99820.77
2018-02-02T12:36:35.773Z,99825.45
2018-02-02T12:39:06.650Z,99821.02
2018-02-02T12:41:52.704Z,99818.50
2018-02-02T12:44:28.337Z,99817.13
2018-02-02T12:47:05.875Z,99821.73
2018-02-02T12:49:37.135Z,99816.82
2018-02-02T12:52:08.390Z,99823.52
2018-02-02T12:54:43.175Z,99834.57
2018-02-02T12:57:15.688Z,99832.52
2018-02-02T12:59:46.846Z,99840.54
2018-02-02T13:02:22.381Z,99839.19
2018-02-02T13:04:53.399Z,99842.14
2018-02-02T13:07:24.668Z,99838.26
2018-02-02T13:09:55.109Z,99850.05
2018-02-02T13:12:25.850Z,99838.70
2018-02-02T13:14:56.603Z,99838.22
2018-02-02T13:17:32.100Z,99841.96
2018-02-02T13:20:24.125Z,99854.45
2018-02-02T13:23:02.857Z,99853.59
2018-02-02T13:25:33.982Z,99860.29
2018-02-02T13:28:05.442Z,99860.73
2018-02-02T13:30:52.608Z,99868.18
2018-02-02T13:33:23.598Z,99863.75
2018-02-02T13:35:57.251Z,99856.08
2018-02-02T13:38:34.721Z,99860.98
2018-02-02T13:41:09.070Z,99868.61
2018-02-02T13:43:51.060Z,99861.94
2018-02-02T13:46:25.053Z,99822.05
2018-02-02T13:48:57.944Z,99854.02
2018-02-02T13:51:29.610Z,99865.38
2018-02-02T13:54:01.799Z,99864.32
2018-02-02T13:56:34.055Z,99865.75
2018-02-02T13:59:13.282Z,99865.83
2018-02-02T14:01:45.526Z,99862.28
2018-02-02T14:04:16.321Z,99871.47
2018-02-02T14:06:48.209Z,99872.69
2018-02-02T14:09:32.097Z,99870.13
2018-02-02T14:12:03.611Z,99865.88
2018-02-02T14:14:39.953Z,99876.38
2018-02-02T14:17:11.053Z,99877.44
2018-02-02T14:19:41.432Z,99876.66
2018-02-02T14:22:13.969Z,99882.91
2018-02-02T14:24:45.601Z,99885.41
2018-02-02T14:27:18.816Z,99880.38
2018-02-02T14:29:51.340Z,99875.91
2018-02-02T14:32:22.793Z,99904.97
2018-02-02T14:34:54.888Z,99909.22
2018-02-02T14:37:25.472Z,99910.30
2018-02-02T14:39:57.120Z,99908.22
2018-02-02T14:42:29.920Z,99920.09
2018-02-02T14:45:01.074Z,99931.98
2018-02-02T14:47:34.759Z,99917.06
2018-02-02T14:50:09.585Z,99938.13
2018-02-02T14:52:42.027Z,99944.23
2018-02-02T14:55:13.354Z,99952.68
2018-02-02T14:57:44.979Z,99953.15
2018-02-02T15:00:22.884Z,99955.00
2018-02-02T15:02:54.115Z,99963.64
2018-02-02T15:05:25.018Z,99971.73
2018-02-02T15:08:07.773Z,99971.55
2018-02-02T15:10:40.561Z,99968.95
2018-02-02T15:13:12.040Z,99974.19
2018-02-02T15:15:45.244Z,99977.25
2018-02-02T15:18:25.644Z,99982.12
2018-02-02T15:21:02.170Z,99990.52
2018-02-02T15:23:33.426Z,99977.04
2018-02-02T15:26:06.546Z,99981.02
2018-02-02T15:28:40.504Z,99983.17
2018-02-02T15:31:12.161Z,99982.03
2018-02-02T15:33:42.700Z,99981.10
2018-02-02T15:36:17.534Z,99990.22
2018-02-02T15:38:50.588Z,100002.52
2018-02-02T15:41:24.690Z,100001.45
2018-02-02T15:43:56.632Z,100000.15
2018-02-02T15:46:30.514Z,100010.08
2018-02-02T15:49:02.357Z,100005.91
2018-02-02T15:51:35.875Z,100005.38
2018-02-02T15:56:58.564Z,100008.75
2018-02-02T15:59:31.827Z,100016.48
2018-02-02T16:02:06.039Z,100009.30
2018-02-02T16:04:44.098Z,100026.88
2018-02-02T16:07:15.566Z,100033.06
2018-02-02T16:09:49.394Z,100036.73
2018-02-02T16:12:19.917Z,100026.34
2018-02-02T16:14:51.533Z,100043.27
2018-02-02T16:17:22.216Z,100038.23
2018-02-02T16:19:53.728Z,100041.91
2018-02-02T16:22:27.899Z,100045.30
2018-02-02T16:24:59.116Z,100051.02
2018-02-02T16:27:30.060Z,100059.15
2018-02-02T16:30:06.203Z,100060.50
2018-02-02T16:32:37.616Z,100063.05
2018-02-02T16:35:09.642Z,100066.09
2018-02-02T16:37:41.201Z,100064.11
2018-02-02T16:40:12.799Z,100072.44
2018-02-02T16:42:43.484Z,100079.30
2018-02-02T16:45:16.576Z,100082.82
2018-02-02T16:47:47.097Z,100087.63
2018-02-02T16:50:18.230Z,100087.53
2018-02-02T16:52:49.609Z,100090.02
2018-02-02T16:55:20.120Z,100088.89
2018-02-02T16:57:52.206Z,100094.63
2018-02-02T17:00:23.696Z,100104.44
2018-02-02T17:02:54.755Z,100106.91
2018-02-02T17:05:25.738Z,100100.80
2018-02-02T17:07:57.244Z,100104.73
2018-02-02T17:10:36.935Z,100104.28
2018-02-02T17:13:07.504Z,100109.88
2018-02-02T17:15:40.052Z,100112.45
2018-02-02T17:18:14.089Z,100105.00
2018-02-02T17:20:45.587Z,100120.77
2018-02-02T17:23:16.777Z,100118.55
2018-02-02T17:25:49.373Z,100122.31
2018-02-02T17:28:21.083Z,100124.38
2018-02-02T17:30:53.443Z,100116.33
2018-02-02T17:33:24.248Z,100132.69
2018-02-02T17:35:55.027Z,100130.94
2018-02-02T17:38:25.851Z,100133.05
2018-02-02T17:40:58.221Z,100137.29
2018-02-02T17:43:29.844Z,100133.34
2018-02-02T17:46:02.289Z,100117.61
2018-02-02T17:48:37.587Z,100144.03
2018-02-02T17:51:17.056Z,100147.52
2018-02-02T17:53:50.565Z,100155.46
2018-02-02T17:56:26.294Z,100154.23
2018-02-02T17:58:58.128Z,100163.72
2018-02-02T18:04:08.058Z,100156.94
2018-02-02T18:06:43.479Z,100159.28
2018-02-02T18:09:15.659Z,100162.56
2018-02-02T18:11:47.623Z,100157.51
2018-02-02T18:14:22.902Z,100156.81
2018-02-02T18:16:56.937Z,100152.63
2018-02-02T18:19:29.083Z,100168.25
2018-02-02T18:22:01.305Z,100169.57
2018-02-02T18:24:34.810Z,100163.34
2018-02-02T18:27:06.747Z,100158.86
2018-02-02T18:32:48.674Z,100173.81
2018-02-02T18:35:23.908Z,100136.13
2018-02-02T18:37:59.796Z,100178.77
2018-02-02T18:40:33.806Z,100182.94
2018-02-02T18:43:05.839Z,100185.64
2018-02-02T18:45:41.112Z,100187.91
2018-02-02T18:48:16.268Z,100194.81
2018-02-02T18:50:53.609Z,100191.27
2018-02-02T18:53:29.389Z,100196.92
2018-02-02T18:56:11.617Z,100209.87
2018-02-02T18:58:47.801Z,100206.81
2018-02-02T19:01:28.032Z,100212.00
2018-02-02T19:09:28.754Z,100225.83
2018-02-02T19:12:02.202Z,100223.25
2018-02-02T19:14:35.269Z,100227.14
2018-02-02T19:17:07.199Z,100231.86
2018-02-02T19:19:42.380Z,100228.20
2018-02-02T19:22:13.917Z,100231.91
2018-02-02T19:24:47.730Z,100237.53
2018-02-02T19:27:22.620Z,100239.51
2018-02-02T19:29:59.317Z,100238.78
2018-02-02T19:32:33.664Z,100244.82
2018-02-02T19:35:07.071Z,100251.27
2018-02-02T19:37:41.901Z,100242.97
2018-02-02T19:40:19.687Z,100259.59
2018-02-02T19:45:39.818Z,100257.64
2018-02-02T19:48:14.669Z,100258.50
2018-02-02T19:50:48.988Z,100258.65
2018-02-02T19:53:23.202Z,100262.73
2018-02-02T19:55:59.356Z,100266.44
2018-02-02T19:58:41.544Z,100279.60
2018-02-02T20:01:15.271Z,100276.05
2018-02-02T20:03:48.669Z,100273.50
2018-02-02T20:06:21.118Z,100277.48
2018-02-02T20:08:54.170Z,100288.41
2018-02-02T20:11:27.846Z,100273.44
2018-02-02T20:14:14.248Z,100276.66
2018-02-02T20:19:46.182Z,100271.06
2018-02-02T20:22:21.985Z,100266.41
2018-02-02T20:24:56.436Z,100274.34
2018-02-02T20:27:38.558Z,100275.06
2018-02-02T20:30:16.782Z,100282.27
2018-02-02T20:32:50.638Z,100278.73
2018-02-02T20:35:34.222Z,100284.13
2018-02-02T20:38:06.233Z,100287.41
2018-02-02T20:40:38.893Z,100286.56
2018-02-02T20:43:14.358Z,100275.02
2018-02-02T20:45:47.433Z,100273.98
2018-02-02T20:48:21.435Z,100284.14
2018-02-02T20:50:56.582Z,100281.19
2018-02-02T20:53:36.666Z,100283.16
2018-02-02T20:56:11.385Z,100294.95
2018-02-02T20:58:44.289Z,100285.87
2018-02-02T21:01:17.809Z,100295.43
2018-02-02T21:03:49.574Z,100289.93
2018-02-02T21:06:27.529Z,100293.82
2018-02-02T21:22:39.610Z,100292.20
2018-02-02T21:25:10.989Z,100298.77
2018-02-02T21:27:45.294Z,100302.87
2018-02-02T21:30:19.950Z,100309.48
2018-02-02T21:32:52.539Z,100308.73
2018-02-02T21:35:25.077Z,100313.09
2018-02-02T21:38:01.509Z,100305.77
2018-02-02T21:40:54.194Z,100306.13
2018-02-02T21:43:35.957Z,100309.59
2018-02-02T21:46:08.339Z,100310.66
2018-02-02T21:51:24.655Z,100316.18
2018-02-02T21:53:57.173Z,100317.75
2018-02-02T21:56:30.843Z,100316.19
2018-02-02T21:59:03.279Z,100323.11
2018-02-02T22:01:37.459Z,100301.48
2018-02-02T22:04:08.358Z,100325.20
2018-02-02T22:06:42.778Z,100325.52
2018-02-02T22:09:13.493Z,100333.13
2018-02-02T22:11:44.212Z,100322.48
2018-02-02T22:14:15.959Z,100328.92
2018-02-02T22:16:48.020Z,100332.69
2018-02-02T22:19:21.232Z,100319.49
2018-02-02T22:21:53.443Z,100314.00
2018-02-02T22:24:24.892Z,100332.63
2018-02-02T22:26:56.557Z,100331.31
2018-02-02T22:29:27.285Z,100329.83
2018-02-02T22:31:58.090Z,100333.06
2018-02-02T22:34:29.871Z,100337.13
2018-02-02T22:37:04.798Z,100310.47
2018-02-02T22:57:41.522Z,100332.59
2018-02-02T23:00:18.706Z,100333.50
2018-02-02T23:02:49.683Z,100335.02
2018-02-02T23:05:21.264Z,100336.98
2018-02-02T23:07:52.453Z,100341.86
2018-02-02T23:10:23.233Z,100349.01
2018-02-02T23:12:53.518Z,100344.23
2018-02-02T23:26:33.558Z,100352.81
2018-02-02T23:29:05.910Z,100350.91
2018-02-02T23:31:36.518Z,100337.14
2018-02-02T23:34:07.855Z,100345.50
2018-02-02T23:36:39.898Z,100345.25
2018-02-02T23:39:11.202Z,100341.17
2018-02-02T23:41:41.644Z,100352.53
2018-02-02T23:52:38.328Z,100342.97
2018-02-02T23:55:08.781Z,100337.78
2018-02-02T23:57:39.180Z,100347.72
